createdAt,value
2023-05-13T00:00:07.005Z,78.04
2023-05-13T00:02:38.412Z,77.87
2023-05-13T00:05:09.083Z,78.33
2023-05-13T00:07:38.905Z,77.30
2023-05-13T00:10:12.617Z,77.30
2023-05-13T00:12:42.375Z,78.51
2023-05-13T00:15:13.123Z,79.27
2023-05-13T00:17:42.944Z,79.85
2023-05-13T00:20:13.022Z,79.84
2023-05-13T00:22:42.754Z,79.92
2023-05-13T00:25:15.264Z,79.93
2023-05-13T00:27:45.036Z,80.61
2023-05-13T00:30:15.278Z,80.90
2023-05-13T00:32:45.071Z,80.76
2023-05-13T00:35:15.002Z,80.59
2023-05-13T00:37:45.164Z,80.08
2023-05-13T00:40:22.912Z,78.90
2023-05-13T00:42:53.765Z,78.64
2023-05-13T00:45:24.018Z,78.88
2023-05-13T00:47:54.566Z,79.45
2023-05-13T00:50:24.666Z,78.81
2023-05-13T00:52:54.713Z,78.03
2023-05-13T00:55:27.096Z,78.29
2023-05-13T00:57:56.855Z,78.68
2023-05-13T01:00:26.821Z,78.26
2023-05-13T01:03:01.994Z,77.83
2023-05-13T01:05:42.458Z,78.10
2023-05-13T01:08:23.009Z,77.90
2023-05-13T01:11:00.597Z,77.39
2023-05-13T01:13:37.124Z,77.74
2023-05-13T01:16:13.601Z,78.00
2023-05-13T01:18:47.925Z,77.62
2023-05-13T01:21:17.787Z,77.14
2023-05-13T01:23:50.150Z,77.46
2023-05-13T01:26:19.930Z,77.99
2023-05-13T01:28:50.212Z,77.55
2023-05-13T01:31:21.926Z,77.42
2023-05-13T01:33:53.002Z,77.32
2023-05-13T01:36:23.552Z,76.54
2023-05-13T01:38:58.529Z,75.60
2023-05-13T01:41:30.410Z,75.78
2023-05-13T01:44:00.529Z,75.66
2023-05-13T01:46:32.209Z,76.48
2023-05-13T01:49:02.215Z,76.67
2023-05-13T01:51:32.103Z,77.95
2023-05-13T01:54:04.482Z,77.73
2023-05-13T01:56:35.065Z,77.57
2023-05-13T01:59:05.772Z,77.66
2023-05-13T02:01:35.565Z,77.06
2023-05-13T02:04:05.393Z,77.28
2023-05-13T02:06:35.270Z,77.09
2023-05-13T02:09:08.384Z,77.17
2023-05-13T02:11:41.383Z,77.13
2023-05-13T02:14:11.229Z,77.67
2023-05-13T02:16:41.149Z,77.76
2023-05-13T02:19:11.048Z,78.02
2023-05-13T02:21:41.359Z,77.89
2023-05-13T02:24:13.984Z,78.16
2023-05-13T02:26:45.229Z,78.11
2023-05-13T02:29:15.132Z,78.45
2023-05-13T02:31:45.183Z,80.61
2023-05-13T02:34:15.032Z,82.09
2023-05-13T02:36:44.828Z,83.17
2023-05-13T02:39:17.297Z,82.99
2023-05-13T02:41:47.140Z,82.62
2023-05-13T02:44:17.128Z,82.04
2023-05-13T02:46:47.587Z,82.58
2023-05-13T02:49:18.380Z,82.99
2023-05-13T02:51:48.537Z,82.80
2023-05-13T02:54:22.311Z,82.92
2023-05-13T02:56:52.192Z,82.76
2023-05-13T02:59:21.940Z,82.39
2023-05-13T03:01:51.817Z,82.18
2023-05-13T03:04:21.814Z,82.13
2023-05-13T03:06:53.126Z,81.98
2023-05-13T03:09:25.590Z,81.78
2023-05-13T03:11:55.420Z,82.08
2023-05-13T03:14:25.175Z,82.32
2023-05-13T03:16:55.114Z,82.31
2023-05-13T03:19:24.849Z,82.63
2023-05-13T03:21:55.291Z,82.28
2023-05-13T03:24:27.784Z,82.41
2023-05-13T03:26:57.906Z,82.23
2023-05-13T03:29:27.820Z,82.29
2023-05-13T03:31:57.787Z,83.45
2023-05-13T03:34:28.162Z,83.50
2023-05-13T03:36:58.216Z,84.51
2023-05-13T03:39:31.829Z,85.19
2023-05-13T03:42:01.770Z,85.48
2023-05-13T03:44:31.623Z,85.21
2023-05-13T03:47:01.588Z,85.97
2023-05-13T03:49:32.057Z,85.61
2023-05-13T03:52:01.886Z,85.98
2023-05-13T03:54:34.380Z,86.32
2023-05-13T03:57:04.677Z,86.23
2023-05-13T03:59:34.481Z,86.14
2023-05-13T04:02:04.295Z,86.22
2023-05-13T04:04:34.112Z,85.83
2023-05-13T04:07:03.950Z,85.76
2023-05-13T04:09:36.656Z,86.46
2023-05-13T04:12:06.683Z,86.99
2023-05-13T04:14:36.965Z,86.28
2023-05-13T04:17:07.106Z,86.60
2023-05-13T04:19:37.025Z,87.00
2023-05-13T04:22:07.065Z,86.58
2023-05-13T04:24:39.458Z,86.62
2023-05-13T04:27:09.430Z,86.33
2023-05-13T04:29:39.371Z,87.70
2023-05-13T04:32:09.971Z,88.45
2023-05-13T04:34:40.793Z,87.15
2023-05-13T04:37:10.708Z,86.54
2023-05-13T04:39:43.214Z,86.04
2023-05-13T04:42:13.246Z,86.40
2023-05-13T04:44:43.223Z,86.60
2023-05-13T04:47:13.294Z,86.32
2023-05-13T04:49:43.286Z,85.13
2023-05-13T04:52:14.376Z,84.79
2023-05-13T04:54:46.718Z,84.24
2023-05-13T04:57:16.532Z,83.75
2023-05-13T04:59:46.316Z,83.48
2023-05-13T05:02:16.961Z,83.25
2023-05-13T05:04:49.460Z,82.97
2023-05-13T05:07:19.662Z,82.44
2023-05-13T05:09:52.674Z,81.70
2023-05-13T05:12:22.469Z,81.30
2023-05-13T05:14:52.222Z,80.82
2023-05-13T05:17:22.079Z,79.50
2023-05-13T05:19:51.915Z,78.82
2023-05-13T05:22:21.698Z,78.45
2023-05-13T05:24:54.052Z,77.69
2023-05-13T05:27:23.870Z,77.49
2023-05-13T05:29:53.598Z,77.90
2023-05-13T05:32:23.635Z,77.91
2023-05-13T05:34:53.497Z,78.07
2023-05-13T05:37:23.281Z,78.52
2023-05-13T05:39:55.670Z,78.42
2023-05-13T05:42:25.543Z,77.27
2023-05-13T05:44:55.820Z,77.19
2023-05-13T05:47:26.452Z,77.08
2023-05-13T05:49:56.228Z,76.21
2023-05-13T05:52:26.106Z,76.00
2023-05-13T05:54:58.445Z,75.63
2023-05-13T05:57:28.176Z,75.21
2023-05-13T05:59:57.987Z,74.70
2023-05-13T06:02:27.797Z,73.75
2023-05-13T06:04:57.644Z,72.56
2023-05-13T06:07:27.544Z,71.96
2023-05-13T06:10:00.042Z,71.32
2023-05-13T06:12:29.852Z,69.72
2023-05-13T06:14:59.610Z,69.98
2023-05-13T06:17:29.411Z,69.14
2023-05-13T06:20:01.315Z,69.12
2023-05-13T06:22:31.151Z,68.16
2023-05-13T06:25:03.528Z,68.42
2023-05-13T06:27:34.153Z,68.38
2023-05-13T06:30:04.128Z,66.62
2023-05-13T06:32:33.958Z,66.24
2023-05-13T06:35:03.901Z,66.32
2023-05-13T06:37:33.778Z,66.72
2023-05-13T06:40:06.713Z,66.18
2023-05-13T06:42:42.516Z,66.81
2023-05-13T06:45:26.053Z,66.17
2023-05-13T06:47:56.629Z,66.27
2023-05-13T06:50:26.486Z,65.76
2023-05-13T06:52:56.246Z,65.37
2023-05-13T06:55:28.600Z,65.76
2023-05-13T06:57:58.312Z,64.30
2023-05-13T07:00:28.253Z,62.46
2023-05-13T07:02:57.964Z,61.15
2023-05-13T07:05:27.865Z,62.32
2023-05-13T07:07:57.683Z,62.53
2023-05-13T07:10:30.062Z,61.42
2023-05-13T07:12:59.868Z,61.13
2023-05-13T07:15:29.632Z,61.80
2023-05-13T07:17:59.465Z,62.03
2023-05-13T07:20:29.261Z,60.98
2023-05-13T07:22:59.028Z,61.66
2023-05-13T07:25:31.334Z,61.77
2023-05-13T07:28:01.181Z,61.59
2023-05-13T07:30:31.021Z,61.95
2023-05-13T07:33:00.868Z,60.74
2023-05-13T07:35:30.649Z,60.62
2023-05-13T07:38:00.358Z,60.93
2023-05-13T07:40:32.694Z,60.72
2023-05-13T07:43:02.428Z,61.32
2023-05-13T07:45:32.321Z,60.13
2023-05-13T07:48:02.106Z,61.20
2023-05-13T07:50:31.839Z,59.53
2023-05-13T07:53:01.565Z,59.88
2023-05-13T07:55:33.866Z,59.47
2023-05-13T07:58:03.618Z,59.98
2023-05-13T08:00:33.638Z,59.49
2023-05-13T08:03:04.274Z,60.14
2023-05-13T08:05:34.192Z,59.71
2023-05-13T08:08:04.119Z,59.52
2023-05-13T08:10:36.466Z,61.42
2023-05-13T08:13:06.209Z,60.53
2023-05-13T08:15:37.207Z,60.16
2023-05-13T08:18:07.085Z,59.86
2023-05-13T08:20:36.948Z,60.44
2023-05-13T08:23:07.004Z,60.76
2023-05-13T08:25:39.337Z,60.88
2023-05-13T08:28:09.111Z,60.75
2023-05-13T08:30:40.910Z,60.39
2023-05-13T08:33:11.418Z,60.02
2023-05-13T08:35:42.918Z,59.53
2023-05-13T08:38:13.975Z,59.15
2023-05-13T08:40:47.801Z,58.51
2023-05-13T08:43:18.978Z,58.54
2023-05-13T08:45:50.852Z,59.93
2023-05-13T08:48:22.617Z,58.64
2023-05-13T08:50:52.804Z,58.25
2023-05-13T08:53:24.134Z,58.81
2023-05-13T08:55:57.415Z,57.56
2023-05-13T08:58:27.935Z,56.50
2023-05-13T09:00:58.842Z,57.23
2023-05-13T09:03:30.570Z,58.08
2023-05-13T09:06:03.437Z,57.42
2023-05-13T09:08:33.185Z,57.98
2023-05-13T09:11:05.827Z,57.39
2023-05-13T09:13:35.558Z,56.25
2023-05-13T09:16:06.160Z,56.53
2023-05-13T09:18:36.877Z,57.47
2023-05-13T09:21:27.778Z,55.62
2023-05-13T09:24:19.084Z,56.19
2023-05-13T09:26:52.856Z,56.28
2023-05-13T09:29:25.360Z,56.12
2023-05-13T09:31:56.771Z,56.29
2023-05-13T09:34:31.413Z,56.28
2023-05-13T09:37:04.304Z,56.75
2023-05-13T09:39:35.902Z,56.79
2023-05-13T09:42:08.914Z,58.26
2023-05-13T09:44:39.057Z,58.14
2023-05-13T09:47:09.066Z,57.37
2023-05-13T09:49:38.951Z,56.51
2023-05-13T09:52:11.744Z,55.58
2023-05-13T09:54:42.000Z,55.53
2023-05-13T09:57:15.984Z,56.83
2023-05-13T09:59:45.740Z,55.69
2023-05-13T10:02:18.187Z,56.56
2023-05-13T10:04:48.336Z,55.70
2023-05-13T10:07:18.099Z,53.20
2023-05-13T10:09:49.263Z,52.63
2023-05-13T10:12:23.685Z,51.87
2023-05-13T10:14:54.878Z,52.13
2023-05-13T10:17:27.893Z,52.12
2023-05-13T10:20:01.025Z,54.44
2023-05-13T10:27:02.801Z,50.80
2023-05-13T10:30:03.898Z,50.92
2023-05-13T10:32:35.225Z,51.43
2023-05-13T10:35:10.352Z,50.60
2023-05-13T10:38:09.309Z,50.53
2023-05-13T10:41:19.670Z,50.18
2023-05-13T10:44:09.978Z,50.54
2023-05-13T10:46:45.721Z,48.38
2023-05-13T10:49:18.252Z,49.72
2023-05-13T10:51:49.584Z,50.76
2023-05-13T10:54:24.961Z,49.70
2023-05-13T10:57:00.192Z,49.51
2023-05-13T10:59:30.863Z,50.61
2023-05-13T11:02:05.511Z,51.15
2023-05-13T11:04:35.322Z,50.34
2023-05-13T11:07:18.416Z,49.14
2023-05-13T11:09:53.570Z,50.00
2023-05-13T11:12:23.458Z,49.92
2023-05-13T11:14:53.270Z,50.06
2023-05-13T11:17:26.202Z,48.87
2023-05-13T11:19:56.180Z,49.13
2023-05-13T11:22:27.660Z,50.66
2023-05-13T11:25:08.454Z,51.63
2023-05-13T11:27:41.811Z,49.67
2023-05-13T11:30:25.012Z,47.86
2023-05-13T11:33:02.932Z,49.45
2023-05-13T11:35:34.324Z,45.47
2023-05-13T11:38:05.906Z,46.61
2023-05-13T11:40:38.446Z,46.31
2023-05-13T11:43:09.077Z,46.79
2023-05-13T11:45:42.448Z,45.88
2023-05-13T11:48:26.465Z,45.33
2023-05-13T11:51:00.393Z,47.17
2023-05-13T11:53:30.286Z,46.10
2023-05-13T11:56:13.105Z,46.75
2023-05-13T11:58:42.899Z,45.57
2023-05-13T12:01:17.670Z,45.98
2023-05-13T12:03:50.426Z,44.76
2023-05-13T12:06:21.271Z,44.89
2023-05-13T12:08:51.015Z,45.84
2023-05-13T12:11:20.898Z,44.76
2023-05-13T12:13:50.920Z,45.77
2023-05-13T12:16:20.779Z,45.95
2023-05-13T12:19:02.701Z,44.71
2023-05-13T12:21:35.347Z,43.86
2023-05-13T12:24:05.103Z,46.07
2023-05-13T12:26:34.850Z,44.97
2023-05-13T12:29:05.010Z,45.32
2023-05-13T12:31:35.089Z,44.07
2023-05-13T12:34:07.546Z,43.79
2023-05-13T12:36:40.716Z,44.81
2023-05-13T12:39:12.143Z,44.90
2023-05-13T12:41:43.969Z,43.91
2023-05-13T12:44:17.267Z,43.40
2023-05-13T12:46:53.021Z,42.88
2023-05-13T12:49:25.484Z,43.44
2023-05-13T12:51:55.925Z,42.45
2023-05-13T12:54:25.815Z,41.38
2023-05-13T12:56:55.597Z,41.79
2023-05-13T12:59:26.758Z,41.39
2023-05-13T13:01:57.646Z,42.47
2023-05-13T13:04:30.919Z,42.05
2023-05-13T13:07:00.752Z,42.10
2023-05-13T13:09:30.504Z,42.11
2023-05-13T13:12:00.265Z,41.81
2023-05-13T13:14:29.993Z,41.08
2023-05-13T13:16:59.780Z,40.94
2023-05-13T13:19:32.117Z,41.50
2023-05-13T13:22:01.903Z,40.74
2023-05-13T13:24:31.699Z,41.43
2023-05-13T13:27:01.483Z,41.20
2023-05-13T13:29:31.236Z,41.33
2023-05-13T13:32:01.070Z,39.78
2023-05-13T13:34:33.411Z,41.28
2023-05-13T13:37:03.179Z,40.59
2023-05-13T13:39:33.594Z,40.79
2023-05-13T13:42:04.792Z,40.04
2023-05-13T13:44:38.539Z,40.31
2023-05-13T13:47:08.329Z,39.60
2023-05-13T13:49:40.665Z,40.15
2023-05-13T13:52:11.299Z,39.65
2023-05-13T13:54:41.010Z,39.10
2023-05-13T13:57:10.780Z,41.54
2023-05-13T13:59:40.495Z,41.69
2023-05-13T14:02:10.296Z,42.01
2023-05-13T14:04:42.773Z,40.88
2023-05-13T14:07:12.695Z,40.72
2023-05-13T14:09:42.429Z,41.21
2023-05-13T14:12:12.314Z,41.29
2023-05-13T14:14:42.048Z,39.83
2023-05-13T14:17:13.171Z,39.11
2023-05-13T14:19:46.952Z,40.82
2023-05-13T14:22:16.702Z,40.09
2023-05-13T14:24:46.498Z,41.24
2023-05-13T14:27:16.320Z,40.67
2023-05-13T14:29:46.094Z,40.50
2023-05-13T14:32:16.059Z,39.65
2023-05-13T14:34:48.899Z,39.26
2023-05-13T14:37:18.698Z,39.03
2023-05-13T14:39:50.077Z,39.45
2023-05-13T14:42:20.212Z,40.36
2023-05-13T14:44:49.978Z,41.10
2023-05-13T14:47:19.751Z,41.87
2023-05-13T14:49:52.068Z,41.30
2023-05-13T14:52:21.901Z,40.94
2023-05-13T14:54:52.244Z,42.07
2023-05-13T14:57:22.179Z,42.40
2023-05-13T14:59:51.899Z,41.87
2023-05-13T15:02:21.670Z,41.32
2023-05-13T15:04:54.162Z,40.70
2023-05-13T15:07:24.086Z,41.06
2023-05-13T15:09:53.914Z,41.34
2023-05-13T15:12:23.748Z,42.28
2023-05-13T15:14:56.620Z,42.10
2023-05-13T15:17:26.546Z,40.49
2023-05-13T15:19:58.911Z,39.21
2023-05-13T15:22:28.694Z,39.18
2023-05-13T15:24:58.427Z,38.62
2023-05-13T15:27:29.398Z,37.29
2023-05-13T15:29:59.864Z,38.18
2023-05-13T15:32:30.224Z,38.29
2023-05-13T15:35:02.693Z,38.16
2023-05-13T15:37:32.506Z,38.19
2023-05-13T15:40:02.306Z,38.51
2023-05-13T15:42:32.037Z,39.21
2023-05-13T15:45:02.035Z,38.61
2023-05-13T15:47:32.052Z,38.80
2023-05-13T15:50:04.774Z,39.64
2023-05-13T15:52:34.647Z,38.93
2023-05-13T15:55:04.376Z,37.53
2023-05-13T15:57:34.120Z,37.37
2023-05-13T16:00:04.016Z,37.89
2023-05-13T16:02:39.435Z,38.21
2023-05-13T16:05:12.313Z,38.53
2023-05-13T16:07:42.025Z,38.36
2023-05-13T16:10:12.582Z,39.12
2023-05-13T16:12:43.294Z,36.69
2023-05-13T16:15:14.118Z,37.48
2023-05-13T16:17:43.932Z,38.38
2023-05-13T16:20:16.511Z,38.41
2023-05-13T16:22:46.381Z,38.79
2023-05-13T16:25:16.424Z,37.84
2023-05-13T16:27:46.212Z,37.73
2023-05-13T16:30:16.404Z,37.34
2023-05-13T16:32:49.027Z,36.99
2023-05-13T16:35:21.767Z,36.40
2023-05-13T16:37:51.798Z,37.34
2023-05-13T16:40:21.675Z,36.79
2023-05-13T16:42:51.646Z,34.70
2023-05-13T16:45:21.880Z,37.04
2023-05-13T16:47:51.852Z,36.81
2023-05-13T16:50:24.912Z,35.83
2023-05-13T16:52:54.935Z,35.77
2023-05-13T16:55:26.169Z,34.93
2023-05-13T16:57:56.318Z,35.60
2023-05-13T17:00:26.350Z,36.01
2023-05-13T17:02:56.172Z,35.86
2023-05-13T17:05:30.149Z,37.02
2023-05-13T17:07:59.852Z,36.79
2023-05-13T17:10:29.652Z,36.77
2023-05-13T17:12:59.415Z,36.74
2023-05-13T17:15:29.274Z,35.31
2023-05-13T17:17:59.148Z,36.05
2023-05-13T17:20:31.514Z,36.08
2023-05-13T17:23:01.305Z,35.29
2023-05-13T17:25:31.181Z,36.06
2023-05-13T17:28:01.050Z,37.04
2023-05-13T17:30:30.826Z,36.61
2023-05-13T17:33:00.578Z,37.00
2023-05-13T17:35:32.959Z,37.55
2023-05-13T17:38:02.680Z,38.85
2023-05-13T17:40:32.622Z,39.16
2023-05-13T17:43:03.717Z,39.48
2023-05-13T17:45:35.793Z,39.86
2023-05-13T17:48:05.835Z,39.75
2023-05-13T17:50:38.502Z,40.21
2023-05-13T17:53:09.634Z,40.42
2023-05-13T17:55:39.598Z,41.34
2023-05-13T17:58:09.693Z,41.19
2023-05-13T18:00:39.560Z,41.45
2023-05-13T18:03:09.692Z,41.13
2023-05-13T18:05:42.546Z,41.51
2023-05-13T18:08:12.719Z,41.62
2023-05-13T18:10:42.816Z,42.14
2023-05-13T18:13:12.917Z,41.88
2023-05-13T18:15:43.196Z,41.67
2023-05-13T18:18:13.667Z,41.91
2023-05-13T18:20:46.140Z,42.30
2023-05-13T18:23:16.487Z,42.99
2023-05-13T18:25:54.942Z,43.02
2023-05-13T18:28:25.605Z,42.85
2023-05-13T18:30:55.332Z,43.53
2023-05-13T18:33:25.102Z,43.11
2023-05-13T18:35:57.422Z,44.22
2023-05-13T18:38:27.176Z,44.23
2023-05-13T18:40:57.005Z,43.68
2023-05-13T18:43:26.907Z,43.57
2023-05-13T18:45:57.989Z,43.98
2023-05-13T18:48:27.924Z,43.46
2023-05-13T18:51:00.334Z,44.55
2023-05-13T18:53:30.183Z,44.82
2023-05-13T18:56:00.167Z,44.73
2023-05-13T18:58:29.929Z,45.14
2023-05-13T19:00:59.713Z,45.31
2023-05-13T19:03:29.648Z,45.38
2023-05-13T19:06:02.050Z,44.81
2023-05-13T19:08:31.809Z,46.09
2023-05-13T19:11:01.563Z,46.86
2023-05-13T19:13:39.815Z,47.72
2023-05-13T19:16:17.204Z,48.83
2023-05-13T19:18:47.050Z,49.98
2023-05-13T19:21:19.859Z,50.69
2023-05-13T19:23:49.585Z,50.63
2023-05-13T19:26:19.500Z,50.36
2023-05-13T19:28:49.667Z,51.28
2023-05-13T19:31:19.576Z,51.62
2023-05-13T19:33:49.365Z,51.64
2023-05-13T19:36:23.880Z,51.16
2023-05-13T19:38:53.625Z,51.22
2023-05-13T19:41:23.351Z,50.99
2023-05-13T19:43:53.227Z,51.47
2023-05-13T19:46:23.150Z,51.24
2023-05-13T19:48:52.928Z,51.32
2023-05-13T19:51:26.888Z,51.71
2023-05-13T19:53:56.899Z,51.69
2023-05-13T19:56:26.727Z,51.77
2023-05-13T19:58:56.458Z,52.60
2023-05-13T20:01:27.046Z,53.25
2023-05-13T20:03:57.451Z,52.94
2023-05-13T20:06:29.850Z,52.75
2023-05-13T20:09:00.927Z,53.33
2023-05-13T20:11:31.502Z,53.58
2023-05-13T20:14:01.731Z,54.38
2023-05-13T20:16:31.520Z,54.23
2023-05-13T20:19:03.194Z,54.91
2023-05-13T20:21:35.641Z,55.28
2023-05-13T20:24:05.342Z,55.49
2023-05-13T20:26:35.871Z,55.58
2023-05-13T20:29:05.730Z,56.00
2023-05-13T20:31:35.585Z,55.33
2023-05-13T20:34:06.269Z,55.60
2023-05-13T20:36:38.928Z,56.37
2023-05-13T20:39:08.708Z,57.79
2023-05-13T20:41:38.469Z,57.52
2023-05-13T20:44:08.249Z,57.78
2023-05-13T20:46:38.029Z,58.44
2023-05-13T20:49:08.107Z,59.00
2023-05-13T20:51:41.253Z,59.75
2023-05-13T20:54:11.522Z,60.51
2023-05-13T20:56:41.285Z,60.66
2023-05-13T20:59:11.502Z,61.43
2023-05-13T21:01:41.989Z,61.08
2023-05-13T21:04:11.857Z,60.02
2023-05-13T21:06:44.284Z,59.38
2023-05-13T21:09:14.085Z,59.23
2023-05-13T21:11:43.821Z,59.42
2023-05-13T21:14:13.572Z,59.76
2023-05-13T21:16:43.546Z,60.19
2023-05-13T21:19:21.344Z,60.74
2023-05-13T21:21:54.221Z,60.23
2023-05-13T21:24:23.998Z,61.03
2023-05-13T21:26:53.987Z,61.52
2023-05-13T21:29:23.765Z,61.42
2023-05-13T21:31:54.661Z,61.32
2023-05-13T21:34:24.534Z,61.18
2023-05-13T21:36:56.879Z,61.29
2023-05-13T21:39:26.678Z,61.06
2023-05-13T21:41:56.466Z,61.72
2023-05-13T21:44:26.891Z,61.60
2023-05-13T21:46:56.636Z,61.90
2023-05-13T21:49:26.943Z,61.74
2023-05-13T21:51:59.328Z,61.92
2023-05-13T21:54:29.196Z,62.51
2023-05-13T21:56:58.990Z,62.97
2023-05-13T21:59:28.843Z,63.43
2023-05-13T22:01:58.606Z,64.86
2023-05-13T22:04:28.377Z,64.78
2023-05-13T22:07:00.719Z,64.67
2023-05-13T22:09:30.537Z,64.88
2023-05-13T22:12:00.358Z,64.70
2023-05-13T22:14:30.098Z,65.07
2023-05-13T22:17:08.999Z,66.17
2023-05-13T22:19:39.705Z,66.31
2023-05-13T22:22:12.103Z,66.06
2023-05-13T22:24:41.840Z,65.82
2023-05-13T22:27:11.827Z,67.19
2023-05-13T22:29:41.590Z,67.33
2023-05-13T22:32:11.429Z,68.28
2023-05-13T22:34:41.257Z,69.37
2023-05-13T22:37:13.571Z,69.90
2023-05-13T22:39:43.299Z,70.04
2023-05-13T22:42:13.059Z,69.55
2023-05-13T22:44:42.844Z,70.74
2023-05-13T22:47:12.650Z,69.77
2023-05-13T22:49:42.450Z,70.13
2023-05-13T22:52:14.858Z,69.74
2023-05-13T22:54:44.682Z,69.79
2023-05-13T22:57:14.442Z,69.58
2023-05-13T22:59:44.199Z,69.16
2023-05-13T23:02:13.981Z,69.67
2023-05-13T23:04:43.776Z,69.91
2023-05-13T23:07:16.120Z,70.86
2023-05-13T23:09:46.043Z,71.54
2023-05-13T23:12:16.024Z,71.51
2023-05-13T23:14:45.941Z,70.73
2023-05-13T23:17:16.061Z,70.62
2023-05-13T23:19:45.830Z,70.76
2023-05-13T23:22:18.219Z,70.38
2023-05-13T23:24:47.997Z,71.28
2023-05-13T23:27:19.311Z,71.19
2023-05-13T23:29:49.087Z,71.28
2023-05-13T23:32:19.274Z,70.95
2023-05-13T23:34:49.055Z,71.07
2023-05-13T23:37:22.331Z,70.35
2023-05-13T23:39:52.127Z,70.94
2023-05-13T23:42:21.909Z,71.89
2023-05-13T23:44:51.664Z,71.88
2023-05-13T23:47:21.848Z,71.85
2023-05-13T23:49:51.599Z,71.90
2023-05-13T23:52:24.137Z,71.37
2023-05-13T23:54:53.999Z,70.97
2023-05-13T23:57:24.071Z,71.47
2023-05-13T23:59:53.810Z,71.49
